Time,TemperatureF,DewpointF,PressureIn,WindDirection,WindDirectionDegrees,WindSpeedMPH,WindSpeedGustMPH,Humidity,HourlyPrecipIn,Conditions,Clouds,dailyrainin,SoftwareType,DateUTC
2013-07-04 00:02:00,74.0,72.0,30.19,West,275,0.0,0.0,95,0.00,,,0.00,,2013-07-04 04:02:00,
2013-07-04 00:11:00,73.0,72.0,30.19,West,276,0.0,0.0,96,0.00,,,0.00,,2013-07-04 04:11:00,
2013-07-04 00:22:00,73.0,72.0,30.19,West,276,0.0,0.0,96,0.00,,,0.00,,2013-07-04 04:22:00,
2013-07-04 00:33:00,73.0,72.0,30.19,West,275,0.0,0.0,96,0.00,,,0.00,,2013-07-04 04:33:00,
2013-07-04 00:43:00,73.0,72.0,30.19,West,275,0.0,0.0,96,0.00,,,0.00,,2013-07-04 04:43:00,
2013-07-04 00:52:00,73.0,72.0,30.19,West,275,0.0,0.0,97,0.00,,,0.00,,2013-07-04 04:52:00,
2013-07-04 01:02:00,73.0,72.0,30.19,West,276,0.0,0.0,97,0.00,,,0.00,,2013-07-04 05:02:00,
2013-07-04 01:22:00,73.0,72.0,30.19,West,276,0.0,0.0,97,0.00,,,0.00,,2013-07-04 05:22:00,
2013-07-04 01:33:00,73.0,72.0,30.19,West,276,0.0,0.0,97,0.00,,,0.00,,2013-07-04 05:33:00,
2013-07-04 01:43:00,73.0,72.0,30.19,West,276,0.0,0.0,97,0.00,,,0.00,,2013-07-04 05:43:00,
2013-07-04 01:52:00,73.0,72.0,30.19,West,275,0.0,0.0,97,0.00,,,0.00,,2013-07-04 05:52:00,
2013-07-04 02:01:00,73.0,72.0,30.19,West,275,0.0,0.0,97,0.00,,,0.00,,2013-07-04 06:01:00,
2013-07-04 02:11:00,72.0,71.0,30.19,West,276,0.0,0.0,98,0.00,,,0.00,,2013-07-04 06:11:00,
2013-07-04 02:22:00,72.0,71.0,30.19,West,276,0.0,1.0,98,0.00,,,0.00,,2013-07-04 06:22:00,
2013-07-04 02:34:00,72.0,71.0,30.18,West,275,0.0,1.0,98,0.00,,,0.00,,2013-07-04 06:34:00,
2013-07-04 02:43:00,72.0,71.0,30.19,West,275,0.0,0.0,98,0.00,,,0.00,,2013-07-04 06:43:00,
2013-07-04 02:53:00,72.0,71.0,30.18,West,275,0.0,0.0,98,0.00,,,0.00,,2013-07-04 06:53:00,
2013-07-04 03:02:00,72.0,71.0,30.18,West,276,0.0,0.0,98,0.00,,,0.00,,2013-07-04 07:02:00,
2013-07-04 03:12:00,72.0,71.0,30.18,West,276,0.0,0.0,98,0.00,,,0.00,,2013-07-04 07:12:00,
2013-07-04 03:22:00,72.0,71.0,30.18,West,275,0.0,1.0,98,0.00,,,0.00,,2013-07-04 07:22:00,
2013-07-04 03:34:00,72.0,71.0,30.18,West,276,0.0,1.0,98,0.00,,,0.00,,2013-07-04 07:34:00,
2013-07-04 03:43:00,72.0,72.0,30.18,West,274,0.0,0.0,99,0.00,,,0.00,,2013-07-04 07:43:00,
2013-07-04 03:52:00,72.0,72.0,30.18,West,274,0.0,1.0,99,0.00,,,0.00,,2013-07-04 07:52:00,
2013-07-04 04:02:00,72.0,72.0,30.18,West,274,0.0,1.0,99,0.00,,,0.00,,2013-07-04 08:02:00,
2013-07-04 04:11:00,72.0,72.0,30.18,West,274,0.0,0.0,99,0.00,,,0.00,,2013-07-04 08:11:00,
2013-07-04 04:22:00,72.0,72.0,30.18,West,274,0.0,0.0,99,0.00,,,0.00,,2013-07-04 08:22:00,
2013-07-04 04:33:00,72.0,72.0,30.18,West,274,0.0,1.0,99,0.00,,,0.00,,2013-07-04 08:33:00,
2013-07-04 04:42:00,71.0,71.0,30.19,West,274,0.0,0.0,99,0.00,,,0.00,,2013-07-04 08:42:00,
2013-07-04 04:53:00,71.0,70.0,30.19,West,274,0.0,0.0,98,0.00,,,0.00,,2013-07-04 08:53:00,
2013-07-04 05:02:00,71.0,71.0,30.19,West,274,0.0,0.0,99,0.00,,,0.00,,2013-07-04 09:02:00,
2013-07-04 05:11:00,71.0,71.0,30.19,West,274,0.0,1.0,99,0.00,,,0.00,,2013-07-04 09:11:00,
2013-07-04 05:22:00,71.0,71.0,30.19,West,274,0.0,0.0,99,0.00,,,0.00,,2013-07-04 09:22:00,
2013-07-04 05:32:00,71.0,71.0,30.20,West,274,0.0,0.0,99,0.00,,,0.00,,2013-07-04 09:32:00,
2013-07-04 05:42:00,71.0,71.0,30.20,West,274,0.0,0.0,99,0.00,,,0.00,,2013-07-04 09:42:00,
2013-07-04 05:52:00,71.0,71.0,30.20,West,274,0.0,0.0,99,0.00,,,0.00,,2013-07-04 09:52:00,
2013-07-04 06:11:00,70.0,70.0,30.20,West,274,0.0,0.0,99,0.00,,,0.00,,2013-07-04 10:11:00,
2013-07-04 06:22:00,70.0,70.0,30.21,West,274,0.0,0.0,99,0.00,,,0.00,,2013-07-04 10:22:00,
2013-07-04 06:34:00,71.0,71.0,30.20,West,274,0.0,1.0,100,0.00,,,0.00,,2013-07-04 10:34:00,
2013-07-04 06:43:00,71.0,71.0,30.21,West,274,0.0,0.0,100,0.00,,,0.00,,2013-07-04 10:43:00,
2013-07-04 06:53:00,71.0,71.0,30.21,West,274,0.0,0.0,100,0.00,,,0.00,,2013-07-04 10:53:00,
2013-07-04 07:02:00,72.0,72.0,30.21,West,277,0.0,1.0,100,0.00,,,0.00,,2013-07-04 11:02:00,
2013-07-04 07:12:00,72.0,72.0,30.21,West,278,0.0,0.0,100,0.00,,,0.00,,2013-07-04 11:12:00,
2013-07-04 07:22:00,72.0,72.0,30.21,West,281,0.0,1.0,100,0.00,,,0.00,,2013-07-04 11:22:00,
2013-07-04 07:34:00,73.0,73.0,30.22,WNW,283,0.0,1.0,100,0.00,,,0.00,,2013-07-04 11:34:00,
2013-07-04 07:43:00,73.0,73.0,30.22,WNW,299,0.0,2.0,100,0.00,,,0.00,,2013-07-04 11:43:00,
2013-07-04 07:53:00,73.0,73.0,30.22,WNW,298,0.0,1.0,100,0.00,,,0.00,,2013-07-04 11:53:00,
2013-07-04 08:22:00,75.0,73.0,30.22,WNW,299,0.0,1.0,95,0.00,,,0.00,,2013-07-04 12:22:00,
2013-07-04 08:33:00,76.0,74.0,30.22,WNW,300,1.0,3.0,94,0.00,,,0.00,,2013-07-04 12:33:00,
2013-07-04 08:43:00,77.0,74.0,30.22,WNW,301,0.0,2.0,91,0.00,,,0.00,,2013-07-04 12:43:00,
2013-07-04 08:52:00,77.0,73.0,30.22,WNW,283,1.0,7.0,88,0.00,,,0.00,,2013-07-04 12:52:00,
2013-07-04 09:12:00,78.0,74.0,30.22,WNW,298,1.0,3.0,89,0.00,,,0.00,,2013-07-04 13:12:00,
2013-07-04 09:23:00,79.0,75.0,30.22,WNW,297,0.0,2.0,88,0.00,,,0.00,,2013-07-04 13:23:00,
2013-07-04 09:33:00,79.0,75.0,30.22,WNW,293,0.0,1.0,87,0.00,,,0.00,,2013-07-04 13:33:00,
2013-07-04 09:43:00,80.0,75.0,30.22,WNW,288,0.0,3.0,85,0.00,,,0.00,,2013-07-04 13:43:00,
2013-07-04 09:53:00,81.0,75.0,30.22,WNW,291,1.0,4.0,81,0.00,,,0.00,,2013-07-04 13:53:00,
2013-07-04 10:02:00,82.0,75.0,30.21,WNW,293,0.0,4.0,80,0.00,,,0.00,,2013-07-04 14:02:00,
2013-07-04 10:12:00,83.0,76.0,30.21,WNW,296,1.0,4.0,80,0.00,,,0.00,,2013-07-04 14:12:00,
2013-07-04 10:22:00,85.0,77.0,30.21,WNW,294,0.0,3.0,78,0.00,,,0.00,,2013-07-04 14:22:00,
2013-07-04 10:33:00,86.0,77.0,30.21,WNW,297,0.0,2.0,74,0.00,,,0.00,,2013-07-04 14:33:00,
2013-07-04 10:43:00,86.0,78.0,30.21,WNW,297,0.0,2.0,76,0.00,,,0.00,,2013-07-04 14:43:00,
2013-07-04 11:23:00,89.0,77.0,30.20,WNW,297,2.0,5.0,69,0.00,,,0.00,,2013-07-04 15:23:00,
2013-07-04 11:33:00,89.0,77.0,30.20,West,278,0.0,5.0,69,0.00,,,0.00,,2013-07-04 15:33:00,
2013-07-04 11:52:00,90.0,77.0,30.20,WNW,284,1.0,3.0,65,0.00,,,0.00,,2013-07-04 15:52:00,
2013-07-04 12:02:00,90.0,77.0,30.19,WNW,296,0.0,5.0,66,0.00,,,0.00,,2013-07-04 16:02:00,
2013-07-04 12:11:00,91.0,79.0,30.19,WNW,298,1.0,3.0,68,0.00,,,0.00,,2013-07-04 16:11:00,
2013-07-04 12:22:00,91.0,78.0,30.18,WNW,299,0.0,4.0,67,0.00,,,0.00,,2013-07-04 16:22:00,
2013-07-04 12:33:00,91.0,76.0,30.18,WNW,293,1.0,6.0,62,0.00,,,0.00,,2013-07-04 16:33:00,
2013-07-04 12:43:00,91.0,76.0,30.18,SE,124,1.0,6.0,62,0.00,,,0.00,,2013-07-04 16:43:00,
2013-07-04 12:52:00,92.0,79.0,30.18,East,101,0.0,4.0,67,0.00,,,0.00,,2013-07-04 16:52:00,
2013-07-04 13:02:00,93.0,77.0,30.17,East,88,0.0,3.0,60,0.00,,,0.00,,2013-07-04 17:02:00,
2013-07-04 13:22:00,93.0,79.0,30.16,West,262,0.0,4.0,63,0.00,,,0.00,,2013-07-04 17:22:00,
2013-07-04 13:34:00,93.0,78.0,30.16,East,96,0.0,4.0,61,0.00,,,0.00,,2013-07-04 17:34:00,
2013-07-04 13:43:00,93.0,78.0,30.16,East,86,0.0,7.0,61,0.00,,,0.00,,2013-07-04 17:43:00,
2013-07-04 14:01:00,94.0,76.0,30.16,East,88,1.0,6.0,56,0.00,,,0.00,,2013-07-04 18:01:00,
2013-07-04 14:11:00,93.0,78.0,30.16,East,88,0.0,6.0,61,0.00,,,0.00,,2013-07-04 18:11:00,
2013-07-04 14:22:00,94.0,77.0,30.15,East,80,2.0,4.0,58,0.00,,,0.00,,2013-07-04 18:22:00,
2013-07-04 14:33:00,93.0,74.0,30.15,East,91,1.0,7.0,55,0.00,,,0.00,,2013-07-04 18:33:00,
2013-07-04 15:02:00,95.0,75.0,30.14,East,90,2.0,6.0,53,0.00,,,0.00,,2013-07-04 19:02:00,
2013-07-04 15:12:00,93.0,77.0,30.14,East,86,0.0,4.0,59,0.00,,,0.00,,2013-07-04 19:12:00,
2013-07-04 15:22:00,94.0,78.0,30.14,ESE,102,0.0,2.0,60,0.00,,,0.00,,2013-07-04 19:22:00,
2013-07-04 15:33:00,94.0,76.0,30.13,East,87,0.0,3.0,57,0.00,,,0.00,,2013-07-04 19:33:00,
2013-07-04 15:43:00,94.0,75.0,30.13,East,97,0.0,4.0,55,0.00,,,0.00,,2013-07-04 19:43:00,
2013-07-04 15:53:00,95.0,76.0,30.13,East,82,2.0,6.0,55,0.00,,,0.00,,2013-07-04 19:53:00,
2013-07-04 16:02:00,94.0,74.0,30.13,East,96,1.0,3.0,52,0.00,,,0.00,,2013-07-04 20:02:00,
2013-07-04 16:11:00,94.0,74.0,30.13,ENE,75,1.0,7.0,53,0.00,,,0.00,,2013-07-04 20:11:00,
2013-07-04 16:22:00,93.0,77.0,30.12,ENE,74,0.0,4.0,59,0.00,,,0.00,,2013-07-04 20:22:00,
2013-07-04 16:34:00,92.0,75.0,30.12,East,89,0.0,1.0,58,0.00,,,0.00,,2013-07-04 20:34:00,
2013-07-04 16:42:00,92.0,75.0,30.12,West,267,1.0,3.0,57,0.00,,,0.00,,2013-07-04 20:42:00,
2013-07-04 16:53:00,91.0,75.0,30.11,West,260,1.0,2.0,59,0.00,,,0.00,,2013-07-04 20:53:00,
2013-07-04 17:01:00,91.0,75.0,30.11,ENE,77,1.0,4.0,60,0.00,,,0.00,,2013-07-04 21:01:00,
2013-07-04 17:12:00,91.0,76.0,30.11,ESE,103,0.0,2.0,62,0.00,,,0.00,,2013-07-04 21:12:00,
2013-07-04 17:22:00,90.0,74.0,30.11,WSW,242,3.0,9.0,59,0.00,,,0.00,,2013-07-04 21:22:00,
2013-07-04 17:32:00,89.0,74.0,30.11,ESE,122,1.0,2.0,62,0.00,,,0.00,,2013-07-04 21:32:00,
2013-07-04 17:43:00,89.0,74.0,30.11,SE,125,0.0,1.0,62,0.00,,,0.00,,2013-07-04 21:43:00,
2013-07-04 17:53:00,89.0,76.0,30.11,WSW,255,0.0,2.0,65,0.00,,,0.00,,2013-07-04 21:53:00,
2013-07-04 18:02:00,88.0,74.0,30.11,ESE,119,0.0,1.0,63,0.00,,,0.00,,2013-07-04 22:02:00,
2013-07-04 18:12:00,88.0,74.0,30.10,ESE,120,0.0,1.0,64,0.00,,,0.00,,2013-07-04 22:12:00,
2013-07-04 18:22:00,88.0,76.0,30.10,East,86,0.0,5.0,67,0.00,,,0.00,,2013-07-04 22:22:00,
2013-07-04 18:33:00,89.0,75.0,30.10,East,93,0.0,2.0,64,0.00,,,0.00,,2013-07-04 22:33:00,
2013-07-04 18:43:00,88.0,74.0,30.10,East,96,0.0,2.0,63,0.00,,,0.00,,2013-07-04 22:43:00,
2013-07-04 18:52:00,88.0,75.0,30.10,East,84,0.0,4.0,65,0.00,,,0.00,,2013-07-04 22:52:00,
2013-07-04 19:01:00,87.0,74.0,30.10,East,86,0.0,2.0,66,0.00,,,0.00,,2013-07-04 23:01:00,
2013-07-04 19:12:00,87.0,75.0,30.10,ESE,107,0.0,4.0,67,0.00,,,0.00,,2013-07-04 23:12:00,
2013-07-04 19:23:00,87.0,74.0,30.11,SW,219,0.0,2.0,66,0.00,,,0.00,,2013-07-04 23:23:00,
2013-07-04 19:33:00,87.0,75.0,30.11,ESE,103,0.0,1.0,67,0.00,,,0.00,,2013-07-04 23:33:00,
2013-07-04 19:43:00,87.0,74.0,30.11,ESE,117,0.0,1.0,66,0.00,,,0.00,,2013-07-04 23:43:00,
2013-07-04 19:52:00,87.0,74.0,30.11,ESE,115,0.0,1.0,66,0.00,,,0.00,,2013-07-04 23:52:00,
2013-07-04 20:01:00,86.0,74.0,30.11,ESE,115,0.0,1.0,67,0.00,,,0.00,,2013-07-05 00:01:00,
2013-07-04 20:12:00,85.0,74.0,30.11,ESE,115,0.0,1.0,70,0.00,,,0.00,,2013-07-05 00:12:00,
2013-07-04 20:22:00,85.0,75.0,30.12,ESE,116,0.0,0.0,71,0.00,,,0.00,,2013-07-05 00:22:00,
2013-07-04 20:32:00,84.0,74.0,30.12,ESE,115,0.0,1.0,72,0.00,,,0.00,,2013-07-05 00:32:00,
2013-07-04 20:43:00,84.0,74.0,30.12,ESE,115,0.0,1.0,72,0.00,,,0.00,,2013-07-05 00:43:00,
2013-07-04 20:52:00,82.0,73.0,30.12,ESE,115,0.0,1.0,75,0.00,,,0.00,,2013-07-05 00:52:00,
2013-07-04 21:01:00,82.0,73.0,30.12,ESE,115,0.0,1.0,75,0.00,,,0.00,,2013-07-05 01:01:00,
2013-07-04 21:11:00,82.0,74.0,30.12,ESE,121,0.0,1.0,77,0.00,,,0.00,,2013-07-05 01:11:00,
2013-07-04 21:22:00,82.0,74.0,30.12,ESE,121,0.0,1.0,77,0.00,,,0.00,,2013-07-05 01:22:00,
2013-07-04 21:32:00,82.0,74.0,30.12,ESE,121,0.0,1.0,77,0.00,,,0.00,,2013-07-05 01:32:00,
2013-07-04 21:42:00,82.0,74.0,30.12,ESE,121,0.0,1.0,77,0.00,,,0.00,,2013-07-05 01:42:00,
2013-07-04 21:52:00,80.0,74.0,30.13,ESE,120,0.0,1.0,82,0.00,,,0.00,,2013-07-05 01:52:00,
2013-07-04 22:02:00,80.0,74.0,30.13,ESE,116,0.0,1.0,82,0.00,,,0.00,,2013-07-05 02:02:00,
2013-07-04 22:11:00,80.0,74.0,30.13,ESE,116,0.0,1.0,82,0.00,,,0.00,,2013-07-05 02:11:00,
2013-07-04 22:22:00,80.0,74.0,30.13,ESE,116,0.0,1.0,82,0.00,,,0.00,,2013-07-05 02:22:00,
2013-07-04 22:32:00,80.0,74.0,30.14,ESE,115,0.0,1.0,83,0.00,,,0.00,,2013-07-05 02:32:00,
2013-07-04 22:42:00,80.0,74.0,30.14,ESE,115,0.0,1.0,83,0.00,,,0.00,,2013-07-05 02:42:00,
2013-07-04 22:53:00,80.0,74.0,30.14,ESE,115,0.0,1.0,83,0.00,,,0.00,,2013-07-05 02:53:00,
2013-07-04 23:02:00,80.0,74.0,30.14,ESE,115,0.0,1.0,83,0.00,,,0.00,,2013-07-05 03:02:00,
2013-07-04 23:11:00,79.0,73.0,30.13,ESE,116,0.0,1.0,82,0.00,,,0.00,,2013-07-05 03:11:00,
2013-07-04 23:22:00,79.0,73.0,30.13,ESE,116,0.0,1.0,82,0.00,,,0.00,,2013-07-05 03:22:00,
2013-07-04 23:33:00,79.0,73.0,30.14,WSW,245,0.0,2.0,82,0.00,,,0.00,,2013-07-05 03:33:00,
2013-07-04 23:42:00,79.0,73.0,30.14,WSW,245,0.0,2.0,82,0.00,,,0.00,,2013-07-05 03:42:00,
2013-07-04 23:52:00,79.0,74.0,30.13,ESE,113,0.0,3.0,84,0.00,,,0.00,,2013-07-05 03:52:00,